Time;durP1;ratioP1;P1;durP2;ratioP2;P2;SDS_P1;SDS_P2;PMS_P1;PMS_P2;Temp;Humidity;BMP_temperature;BMP_pressure;BME280_temperature;BME280_humidity;BME280_pressure;Samples;Min_cycle;Max_cycle;Signal;HPM_P1;HPM_P2
2023/04/29 00:00:42;;;;;;;24.30;19.00;;;13.60;1.00;;;;;;5037955;28;20184;-57
2023/04/29 00:03:08;;;;;;;21.97;19.60;;;13.60;1.00;;;;;;5048088;28;20218;-53
2023/04/29 00:05:33;;;;;;;21.97;18.67;;;13.50;1.00;;;;;;5052783;28;20184;-55
2023/04/29 00:07:59;;;;;;;20.27;18.03;;;13.50;1.00;;;;;;5040691;28;20260;-54
2023/04/29 00:10:24;;;;;;;22.30;18.30;;;13.60;1.00;;;;;;5043022;28;20184;-54
2023/04/29 00:12:50;;;;;;;23.83;19.10;;;13.60;1.00;;;;;;5042759;28;20189;-54
2023/04/29 00:15:16;;;;;;;21.83;19.17;;;13.60;1.00;;;;;;5041308;28;20183;-54
2023/04/29 00:17:43;;;;;;;20.80;18.53;;;13.60;1.00;;;;;;5042438;28;20196;-54
2023/04/29 00:20:10;;;;;;;21.57;19.23;;;13.60;1.00;;;;;;5042010;28;20453;-53
2023/04/29 00:22:36;;;;;;;20.73;18.37;;;13.60;1.00;;;;;;5040783;28;20482;-53
2023/04/29 00:25:03;;;;;;;23.97;18.13;;;13.60;1.00;;;;;;5045902;28;20493;-53
2023/04/29 00:27:28;;;;;;;25.40;18.30;;;13.70;1.00;;;;;;5041976;28;20446;-55
2023/04/29 00:29:54;;;;;;;20.13;17.13;;;13.70;1.00;;;;;;5031204;28;20451;-52
2023/04/29 00:32:19;;;;;;;23.83;19.30;;;13.60;1.00;;;;;;5032708;28;20697;-53
2023/04/29 00:34:45;;;;;;;22.13;19.20;;;13.60;1.00;;;;;;5041204;28;20601;-53
2023/04/29 00:37:11;;;;;;;20.33;18.13;;;13.50;1.00;;;;;;5041732;28;20196;-55
2023/04/29 00:39:36;;;;;;;22.20;19.90;;;13.60;1.00;;;;;;5046920;28;20180;-54
2023/04/29 00:42:02;;;;;;;21.80;19.50;;;13.60;1.00;;;;;;5037942;28;20204;-54
2023/04/29 00:44:28;;;;;;;22.87;19.53;;;13.60;1.00;;;;;;5046624;28;20189;-55
2023/04/29 00:46:54;;;;;;;23.20;18.80;;;13.60;1.00;;;;;;5044856;28;20970;-52
2023/04/29 00:49:19;;;;;;;24.33;18.87;;;13.60;1.00;;;;;;5036732;28;20547;-54
2023/04/29 00:51:45;;;;;;;27.00;20.23;;;13.50;1.00;;;;;;5037474;28;20216;-56
2023/04/29 00:54:12;;;;;;;21.73;19.13;;;13.50;1.00;;;;;;5038126;28;20196;-56
2023/04/29 00:56:40;;;;;;;23.57;18.97;;;13.50;1.00;;;;;;5033523;28;20569;-56
2023/04/29 00:59:08;;;;;;;23.17;19.37;;;13.50;1.00;;;;;;5035959;28;20451;-52
2023/04/29 01:01:34;;;;;;;24.90;18.77;;;13.50;1.00;;;;;;5036001;28;20533;-54
2023/04/29 01:04:01;;;;;;;22.33;19.63;;;13.50;1.00;;;;;;5035830;28;20466;-53
2023/04/29 01:06:36;;;;;;;21.40;19.07;;;13.50;1.00;;;;;;5049003;28;20443;-54
2023/04/29 01:09:11;;;;;;;21.30;18.47;;;13.50;1.00;;;;;;5047339;28;20529;-53
2023/04/29 01:11:58;;;;;;;25.67;19.07;;;13.60;1.00;;;;;;5050077;28;20955;-56
2023/04/29 01:14:24;;;;;;;24.23;18.13;;;13.60;1.00;;;;;;5048599;28;20455;-51
2023/04/29 01:16:59;;;;;;;22.43;19.13;;;13.50;1.00;;;;;;5046862;28;20496;-54
2023/04/29 01:19:45;;;;;;;22.20;19.23;;;13.50;1.00;;;;;;5049724;28;20446;-55
2023/04/29 01:22:13;;;;;;;25.00;20.40;;;13.60;1.00;;;;;;5050225;28;20558;-52
2023/04/29 01:24:39;;;;;;;23.03;20.07;;;13.50;1.00;;;;;;5042476;28;20453;-53
2023/04/29 01:27:28;;;;;;;25.13;20.63;;;13.50;1.00;;;;;;5047340;28;20797;-54
2023/04/29 01:30:09;;;;;;;28.33;19.80;;;13.50;1.00;;;;;;5045649;28;20447;-53
2023/04/29 01:32:41;;;;;;;23.17;19.13;;;13.50;1.00;;;;;;5043132;28;20459;-53
2023/04/29 01:35:16;;;;;;;24.10;20.00;;;13.60;1.00;;;;;;5053511;28;20417;-51
2023/04/29 01:38:08;;;;;;;26.20;19.77;;;13.70;1.00;;;;;;5042167;28;20477;-52
2023/04/29 01:40:47;;;;;;;23.77;19.73;;;13.70;1.00;;;;;;5045833;28;20466;-54
2023/04/29 01:43:14;;;;;;;28.40;19.73;;;13.70;1.00;;;;;;5044648;28;20486;-53
2023/04/29 01:45:40;;;;;;;25.73;20.23;;;13.60;1.00;;;;;;5048180;28;20443;-52
2023/04/29 01:48:07;;;;;;;27.33;20.63;;;13.60;1.00;;;;;;5047665;28;21006;-53
2023/04/29 01:50:33;;;;;;;25.67;20.90;;;13.80;1.00;;;;;;5047782;28;20713;-56
2023/04/29 01:52:59;;;;;;;26.07;20.53;;;13.70;1.00;;;;;;5045372;28;22060;-54
2023/04/29 01:55:24;;;;;;;24.70;19.40;;;13.60;1.00;;;;;;5050229;28;20185;-54
2023/04/29 01:57:50;;;;;;;23.13;19.73;;;13.60;1.00;;;;;;5050511;28;20458;-52
2023/04/29 02:00:16;;;;;;;29.10;21.17;;;13.50;1.00;;;;;;5040415;28;20204;-53
2023/04/29 02:02:42;;;;;;;27.93;20.70;;;13.50;1.00;;;;;;5048341;28;20502;-53
2023/04/29 02:05:08;;;;;;;29.23;22.60;;;13.40;1.00;;;;;;5051991;28;20193;-54
2023/04/29 02:07:34;;;;;;;26.63;21.93;;;13.50;1.00;;;;;;5047812;28;20219;-55
2023/04/29 02:10:00;;;;;;;26.77;20.40;;;13.50;1.00;;;;;;5046121;28;20854;-55
2023/04/29 02:12:25;;;;;;;29.30;20.37;;;13.40;1.00;;;;;;5052928;28;20594;-52
2023/04/29 02:14:52;;;;;;;26.37;22.47;;;13.40;1.00;;;;;;5047533;28;20197;-53
2023/04/29 02:17:17;;;;;;;24.90;21.47;;;13.30;1.00;;;;;;5042477;28;20560;-55
2023/04/29 02:19:43;;;;;;;26.87;23.20;;;13.30;1.00;;;;;;5042524;28;20512;-55
2023/04/29 02:22:11;;;;;;;27.17;21.73;;;13.40;1.00;;;;;;5041325;28;20346;-55
2023/04/29 02:24:37;;;;;;;30.17;22.47;;;13.40;1.00;;;;;;5043574;28;20646;-54
2023/04/29 02:27:04;;;;;;;33.63;23.67;;;13.40;1.00;;;;;;5043972;28;20500;-55
2023/04/29 02:29:31;;;;;;;27.47;22.90;;;13.40;1.00;;;;;;5045914;28;20845;-52
2023/04/29 02:31:56;;;;;;;33.30;22.57;;;13.40;1.00;;;;;;5045636;28;20446;-53
2023/04/29 02:34:23;;;;;;;31.70;22.83;;;13.40;1.00;;;;;;5047730;28;20466;-54
2023/04/29 02:36:49;;;;;;;27.00;22.43;;;13.20;1.00;;;;;;5047140;28;20679;-52
2023/04/29 02:39:15;;;;;;;27.53;22.90;;;13.20;1.00;;;;;;5044343;28;20972;-54
2023/04/29 02:41:41;;;;;;;28.33;22.30;;;13.00;1.00;;;;;;5049144;28;20790;-52
2023/04/29 02:44:07;;;;;;;28.23;21.93;;;13.00;1.00;;;;;;5044869;28;20458;-55
2023/04/29 02:46:34;;;;;;;28.33;21.00;;;13.00;1.00;;;;;;5048556;28;20601;-52
2023/04/29 02:49:00;;;;;;;24.57;19.17;;;13.00;1.00;;;;;;5047423;28;20508;-56
2023/04/29 02:51:26;;;;;;;26.63;21.00;;;13.00;1.00;;;;;;5045275;28;20451;-54
2023/04/29 02:53:52;;;;;;;25.33;19.93;;;12.90;1.00;;;;;;5040211;28;20451;-52
2023/04/29 02:56:18;;;;;;;28.60;23.10;;;12.80;1.00;;;;;;5045557;28;21008;-57
2023/04/29 02:58:44;;;;;;;26.00;22.03;;;12.80;1.00;;;;;;5047831;28;20857;-54
2023/04/29 03:01:10;;;;;;;27.50;21.43;;;12.80;1.00;;;;;;5047752;28;20598;-54
2023/04/29 03:03:36;;;;;;;28.53;22.80;;;12.80;1.00;;;;;;5042438;28;20199;-51
2023/04/29 03:06:02;;;;;;;32.57;22.40;;;12.90;1.00;;;;;;5045931;28;20181;-56
2023/04/29 03:08:28;;;;;;;29.87;22.90;;;12.90;1.00;;;;;;5042219;28;20977;-54
2023/04/29 03:10:53;;;;;;;23.63;20.53;;;13.00;1.00;;;;;;5033908;28;20932;-53
2023/04/29 03:13:19;;;;;;;25.67;20.53;;;13.00;1.00;;;;;;5036306;28;20308;-54
2023/04/29 03:15:45;;;;;;;30.80;20.13;;;13.10;1.00;;;;;;5033717;28;20189;-53
2023/04/29 03:18:11;;;;;;;24.33;20.03;;;13.10;1.00;;;;;;5032739;28;20451;-54
2023/04/29 03:20:36;;;;;;;26.17;20.17;;;13.10;1.00;;;;;;5034603;28;20191;-52
2023/04/29 03:23:02;;;;;;;27.07;19.50;;;13.00;1.00;;;;;;5034318;28;20629;-54
2023/04/29 03:25:28;;;;;;;27.00;18.77;;;13.00;1.00;;;;;;5035372;28;20804;-53
2023/04/29 03:27:56;;;;;;;23.17;17.60;;;13.00;1.00;;;;;;5034173;28;20196;-52
2023/04/29 03:30:21;;;;;;;23.20;18.17;;;13.00;1.00;;;;;;5031282;28;20448;-54
2023/04/29 03:32:47;;;;;;;22.63;19.10;;;13.00;1.00;;;;;;5034042;28;20439;-53
2023/04/29 03:35:13;;;;;;;25.07;18.93;;;12.90;1.00;;;;;;5037764;28;20275;-55
2023/04/29 03:37:38;;;;;;;24.90;20.40;;;13.00;1.00;;;;;;5035601;28;20196;-53
2023/04/29 03:40:05;;;;;;;22.83;18.60;;;13.10;1.00;;;;;;5043055;28;20188;-54
2023/04/29 03:42:31;;;;;;;20.80;17.80;;;13.10;1.00;;;;;;5045102;28;20554;-51
2023/04/29 03:44:57;;;;;;;20.00;16.50;;;13.20;1.00;;;;;;5055078;28;20457;-53
2023/04/29 03:47:22;;;;;;;22.83;18.87;;;13.20;1.00;;;;;;5052024;28;20246;-53
2023/04/29 03:49:48;;;;;;;20.43;17.20;;;13.20;1.00;;;;;;5045547;28;20189;-53
2023/04/29 03:52:14;;;;;;;21.13;17.00;;;13.20;1.00;;;;;;5044388;28;20219;-53
2023/04/29 03:54:40;;;;;;;20.80;16.80;;;13.20;1.00;;;;;;5039352;28;20531;-55
2023/04/29 03:57:06;;;;;;;17.90;16.00;;;13.20;1.00;;;;;;5044754;28;20483;-53
2023/04/29 03:59:32;;;;;;;28.47;17.03;;;13.10;1.00;;;;;;5042889;28;20470;-57
2023/04/29 04:01:57;;;;;;;17.67;14.33;;;13.10;1.00;;;;;;5051001;28;20795;-54
2023/04/29 04:04:23;;;;;;;20.23;16.03;;;13.10;1.00;;;;;;5043129;28;20283;-54
2023/04/29 04:06:50;;;;;;;22.30;15.73;;;13.10;1.00;;;;;;5043972;28;20196;-53
2023/04/29 04:09:17;;;;;;;18.17;15.60;;;13.20;1.00;;;;;;5035645;28;20235;-54
2023/04/29 04:11:43;;;;;;;19.47;15.00;;;13.20;1.00;;;;;;5044470;28;20458;-51
2023/04/29 04:14:09;;;;;;;18.60;15.40;;;13.20;1.00;;;;;;5042214;28;20454;-55
2023/04/29 04:16:35;;;;;;;15.80;13.20;;;13.30;1.00;;;;;;5051492;28;20781;-53
2023/04/29 04:19:00;;;;;;;18.23;14.03;;;13.30;1.00;;;;;;5050858;28;20453;-54
2023/04/29 04:21:26;;;;;;;16.50;12.40;;;13.30;1.00;;;;;;5047586;28;20764;-53
2023/04/29 04:23:52;;;;;;;19.33;13.87;;;13.30;1.00;;;;;;5044405;28;20255;-55
2023/04/29 04:26:19;;;;;;;13.90;12.00;;;13.40;1.00;;;;;;5045089;28;20191;-54
2023/04/29 04:28:45;;;;;;;16.17;12.90;;;13.50;1.00;;;;;;5047736;28;20194;-52
2023/04/29 04:31:13;;;;;;;15.17;12.97;;;13.50;1.00;;;;;;5053897;28;20780;-54
2023/04/29 04:33:39;;;;;;;13.07;11.00;;;13.50;1.00;;;;;;5039620;28;20461;-54
2023/04/29 04:36:06;;;;;;;13.50;11.87;;;13.50;1.00;;;;;;5042443;28;20470;-55
2023/04/29 04:38:31;;;;;;;12.77;10.70;;;13.60;1.00;;;;;;5047755;28;20472;-54
2023/04/29 04:40:57;;;;;;;11.87;10.67;;;13.70;1.00;;;;;;5049875;28;21023;-53
2023/04/29 04:43:23;;;;;;;13.43;11.70;;;13.60;1.00;;;;;;5048812;28;20185;-55
2023/04/29 04:45:48;;;;;;;13.70;11.50;;;13.70;1.00;;;;;;5038547;28;20193;-56
2023/04/29 04:48:14;;;;;;;13.07;11.27;;;15.00;1.00;;;;;;5033277;28;20185;-55
2023/04/29 04:50:40;;;;;;;14.97;12.13;;;13.70;1.00;;;;;;5035081;28;20180;-56
2023/04/29 04:53:05;;;;;;;13.30;11.07;;;13.60;1.00;;;;;;5040324;28;20284;-52
2023/04/29 04:55:35;;;;;;;11.50;10.30;;;13.60;1.00;;;;;;5046135;28;20261;-54
2023/04/29 04:58:01;;;;;;;11.90;9.90;;;13.60;1.00;;;;;;5055017;28;20186;-54
2023/04/29 05:00:26;;;;;;;11.47;9.70;;;13.60;1.00;;;;;;5051118;28;20446;-53
2023/04/29 05:02:52;;;;;;;11.80;10.53;;;13.60;1.00;;;;;;5043216;28;20208;-53
2023/04/29 05:05:17;;;;;;;9.97;8.60;;;13.60;1.00;;;;;;5038402;28;20180;-56
2023/04/29 05:07:43;;;;;;;10.00;8.90;;;13.70;1.00;;;;;;5050747;28;20199;-56
2023/04/29 05:10:10;;;;;;;9.40;8.40;;;13.70;1.00;;;;;;5037714;28;20287;-52
2023/04/29 05:12:35;;;;;;;8.90;8.00;;;13.80;1.00;;;;;;5035336;28;20454;-54
2023/04/29 05:15:02;;;;;;;11.23;9.40;;;13.80;1.00;;;;;;5039958;28;20447;-53
2023/04/29 05:17:28;;;;;;;9.37;8.20;;;13.80;1.00;;;;;;5044491;28;20243;-54
2023/04/29 05:19:53;;;;;;;10.50;9.17;;;13.80;1.00;;;;;;5049173;28;20455;-51
2023/04/29 05:22:19;;;;;;;11.33;8.50;;;13.90;1.00;;;;;;5049751;28;20308;-53
2023/04/29 05:24:47;;;;;;;9.80;8.80;;;13.80;1.00;;;;;;5043176;28;20188;-51
2023/04/29 05:27:13;;;;;;;11.00;7.63;;;13.80;1.00;;;;;;5050385;28;20272;-53
2023/04/29 05:29:38;;;;;;;9.33;8.33;;;13.90;1.00;;;;;;5047781;28;20501;-51
2023/04/29 05:32:04;;;;;;;9.43;8.43;;;13.80;1.00;;;;;;5047406;28;20450;-50
2023/04/29 05:34:30;;;;;;;12.00;9.23;;;13.80;1.00;;;;;;5047751;28;20211;-55
2023/04/29 05:36:56;;;;;;;9.53;8.50;;;13.80;1.00;;;;;;5049810;28;20287;-56
2023/04/29 05:39:22;;;;;;;10.37;7.90;;;13.90;1.00;;;;;;5047236;28;20208;-54
2023/04/29 05:41:47;;;;;;;11.50;8.97;;;14.00;1.00;;;;;;5049980;28;20494;-52
2023/04/29 05:44:13;;;;;;;9.40;8.17;;;14.20;1.00;;;;;;5046871;28;20235;-53
2023/04/29 05:46:39;;;;;;;9.20;8.37;;;14.50;1.00;;;;;;5045927;28;20242;-51
2023/04/29 05:49:04;;;;;;;8.53;7.67;;;14.70;1.00;;;;;;5052667;28;20222;-54
2023/04/29 05:51:30;;;;;;;8.57;7.67;;;14.80;1.00;;;;;;5043244;28;20235;-55
2023/04/29 05:53:58;;;;;;;8.77;7.87;;;14.90;1.00;;;;;;5048330;28;20194;-53
2023/04/29 05:56:24;;;;;;;10.17;7.40;;;14.80;1.00;;;;;;5044907;28;20251;-53
2023/04/29 05:58:49;;;;;;;8.97;8.07;;;14.80;1.00;;;;;;5047330;28;20469;-54
2023/04/29 06:01:16;;;;;;;9.00;8.10;;;14.70;1.00;;;;;;5043831;28;20204;-51
2023/04/29 06:03:42;;;;;;;10.57;7.83;;;14.80;1.00;;;;;;5053557;28;20184;-51
2023/04/29 06:06:08;;;;;;;8.90;7.90;;;15.00;1.00;;;;;;5041015;28;20809;-54
2023/04/29 06:08:34;;;;;;;9.33;8.23;;;15.30;1.00;;;;;;5049333;28;20496;-53
2023/04/29 06:11:00;;;;;;;11.60;8.10;;;15.50;1.00;;;;;;5043980;28;20421;-54
2023/04/29 06:13:26;;;;;;;10.33;9.33;;;15.80;1.00;;;;;;5044225;28;20184;-53
2023/04/29 06:15:52;;;;;;;9.50;8.50;;;15.90;1.00;;;;;;5041335;28;20446;-54
2023/04/29 06:18:17;;;;;;;9.60;8.60;;;16.00;1.00;;;;;;5044308;28;20246;-57
2023/04/29 06:20:43;;;;;;;9.20;8.07;;;16.00;1.00;;;;;;5042865;28;20184;-52
2023/04/29 06:23:09;;;;;;;9.70;8.77;;;16.00;1.00;;;;;;5046259;28;20231;-53
2023/04/29 06:25:34;;;;;;;9.90;8.47;;;16.20;1.00;;;;;;5048915;28;20184;-51
2023/04/29 06:28:00;;;;;;;11.80;10.70;;;16.30;1.00;;;;;;5047584;28;20642;-53
2023/04/29 06:30:26;;;;;;;11.20;9.00;;;16.40;1.00;;;;;;5044138;28;20193;-53
2023/04/29 06:32:52;;;;;;;11.30;10.10;;;16.50;1.00;;;;;;5043947;28;20449;-54
2023/04/29 06:35:18;;;;;;;11.67;9.50;;;16.60;1.00;;;;;;5041962;28;20184;-53
2023/04/29 06:37:43;;;;;;;11.63;10.43;;;16.80;1.00;;;;;;5045729;28;20443;-53
2023/04/29 06:40:10;;;;;;;12.23;10.70;;;16.90;1.00;;;;;;5046603;28;20196;-53
2023/04/29 06:42:35;;;;;;;13.03;11.10;;;17.00;1.00;;;;;;5044818;28;20300;-54
2023/04/29 06:45:01;;;;;;;13.70;11.70;;;17.10;1.00;;;;;;5046885;28;20533;-51
2023/04/29 06:47:27;;;;;;;13.50;12.10;;;17.10;1.00;;;;;;5059538;28;20870;-51
2023/04/29 06:49:53;;;;;;;13.63;12.23;;;17.00;1.00;;;;;;5062452;28;20196;-51
2023/04/29 06:52:18;;;;;;;14.60;11.73;;;16.80;1.00;;;;;;5044389;28;20196;-53
2023/04/29 06:54:44;;;;;;;14.80;13.27;;;16.60;1.00;;;;;;5042835;28;20595;-56
2023/04/29 06:57:16;;;;;;;13.33;11.80;;;16.30;1.00;;;;;;5084913;27;20851;-56
2023/04/29 06:59:42;;;;;;;14.93;12.20;;;16.00;1.00;;;;;;5084465;28;20447;-53
2023/04/29 07:02:07;;;;;;;14.40;12.40;;;15.90;1.00;;;;;;5087496;28;20262;-52
2023/04/29 07:04:33;;;;;;;12.03;10.83;;;16.00;1.00;;;;;;5081206;28;20190;-54
2023/04/29 07:06:59;;;;;;;13.27;11.03;;;16.00;1.00;;;;;;5086231;28;20209;-54
2023/04/29 07:09:26;;;;;;;16.00;12.47;;;16.10;1.00;;;;;;5078940;28;20180;-54
2023/04/29 07:11:52;;;;;;;14.70;12.47;;;16.10;1.00;;;;;;5078591;28;20650;-53
2023/04/29 07:14:18;;;;;;;14.63;11.80;;;16.10;1.00;;;;;;5075421;28;20872;-52
2023/04/29 07:16:43;;;;;;;15.07;13.07;;;16.20;1.00;;;;;;5082321;28;20476;-53
2023/04/29 07:19:09;;;;;;;16.77;13.33;;;16.10;1.00;;;;;;5085040;28;20184;-53
2023/04/29 07:21:35;;;;;;;15.37;13.13;;;16.60;1.00;;;;;;5082124;28;20183;-54
2023/04/29 07:24:03;;;;;;;17.50;14.80;;;16.00;1.00;;;;;;5082197;28;20591;-55
2023/04/29 07:26:29;;;;;;;18.00;14.97;;;15.80;1.00;;;;;;5080555;28;20199;-55
2023/04/29 07:28:54;;;;;;;17.97;14.53;;;15.40;1.00;;;;;;5077291;28;20987;-56
2023/04/29 07:31:21;;;;;;;18.27;14.40;;;15.20;1.00;;;;;;5085151;28;20233;-55
2023/04/29 07:33:47;;;;;;;18.17;14.40;;;15.20;1.00;;;;;;5081744;28;20195;-56
2023/04/29 07:36:13;;;;;;;17.43;14.13;;;15.20;1.00;;;;;;5082084;28;20468;-52
2023/04/29 07:38:39;;;;;;;17.03;14.90;;;15.40;1.00;;;;;;5089099;28;20441;-56
2023/04/29 07:41:04;;;;;;;15.93;13.70;;;15.60;1.00;;;;;;5083043;28;20233;-55
2023/04/29 07:43:30;;;;;;;14.40;12.63;;;15.70;1.00;;;;;;5085489;28;20255;-54
2023/04/29 07:45:56;;;;;;;15.20;13.60;;;15.70;1.00;;;;;;5078324;28;20667;-54
2023/04/29 07:48:22;;;;;;;20.17;15.30;;;15.70;1.00;;;;;;5084519;28;20675;-53
2023/04/29 07:50:47;;;;;;;15.27;13.43;;;15.90;1.00;;;;;;5080739;28;20484;-56
2023/04/29 07:53:14;;;;;;;15.40;13.03;;;16.00;1.00;;;;;;5085330;28;20183;-53
2023/04/29 07:55:40;;;;;;;15.07;13.50;;;16.10;1.00;;;;;;5077592;28;20710;-52
2023/04/29 07:58:06;;;;;;;13.87;12.37;;;16.10;1.00;;;;;;5092093;28;20543;-54
2023/04/29 08:00:32;;;;;;;12.40;11.10;;;16.20;1.00;;;;;;5077444;28;20200;-52
2023/04/29 08:02:58;;;;;;;13.00;11.33;;;16.20;1.00;;;;;;5074774;28;20275;-52
2023/04/29 08:05:24;;;;;;;13.83;12.47;;;16.00;1.00;;;;;;5083613;28;20858;-54
2023/04/29 08:07:50;;;;;;;13.70;11.80;;;15.70;1.00;;;;;;5073004;28;20522;-53
2023/04/29 08:10:16;;;;;;;16.07;12.87;;;15.80;1.00;;;;;;5069782;28;20449;-52
2023/04/29 08:12:46;;;;;;;13.27;11.10;;;15.90;1.00;;;;;;5074484;28;20461;-53
2023/04/29 08:15:11;;;;;;;12.33;10.33;;;15.90;1.00;;;;;;5063445;28;20459;-54
2023/04/29 08:17:37;;;;;;;11.90;10.67;;;16.00;1.00;;;;;;5068852;28;20464;-57
2023/04/29 08:20:03;;;;;;;11.80;10.33;;;16.20;1.00;;;;;;5064196;28;20529;-54
2023/04/29 08:22:29;;;;;;;9.73;8.73;;;16.30;1.00;;;;;;5068294;28;20317;-52
2023/04/29 08:24:55;;;;;;;9.87;8.97;;;16.60;1.00;;;;;;5071730;28;20999;-55
2023/04/29 08:27:20;;;;;;;10.40;9.30;;;16.50;1.00;;;;;;5091445;28;20433;-55
2023/04/29 08:29:46;;;;;;;9.77;8.73;;;16.90;1.00;;;;;;5076241;28;20265;-53
2023/04/29 08:32:12;;;;;;;9.40;8.40;;;16.40;1.00;;;;;;5069833;28;20222;-54
2023/04/29 08:34:38;;;;;;;10.73;9.07;;;16.40;1.00;;;;;;5062012;28;20191;-53
2023/04/29 08:37:03;;;;;;;10.27;9.20;;;16.30;1.00;;;;;;5088122;28;20199;-56
2023/04/29 08:39:29;;;;;;;10.77;9.67;;;16.30;1.00;;;;;;5062494;28;20808;-52
2023/04/29 08:41:59;;;;;;;9.87;8.87;;;16.30;1.00;;;;;;5071173;28;20854;-52
2023/04/29 08:44:26;;;;;;;11.00;9.90;;;16.10;1.00;;;;;;5062754;28;20528;-53
2023/04/29 08:46:52;;;;;;;11.47;9.80;;;15.90;1.00;;;;;;5064200;28;21031;-53
2023/04/29 08:49:18;;;;;;;11.20;9.30;;;15.70;1.00;;;;;;5065061;28;20476;-56
2023/04/29 08:51:44;;;;;;;10.97;9.67;;;15.70;1.00;;;;;;5063779;28;20453;-56
2023/04/29 08:54:10;;;;;;;9.87;8.90;;;15.80;1.00;;;;;;5060751;28;20188;-54
2023/04/29 08:56:37;;;;;;;10.33;9.30;;;15.90;1.00;;;;;;5062501;28;20477;-53
2023/04/29 08:59:07;;;;;;;10.53;9.47;;;15.80;1.00;;;;;;5076997;28;20521;-53
2023/04/29 09:01:35;;;;;;;10.83;9.33;;;15.80;1.00;;;;;;5081715;28;20991;-55
2023/04/29 09:04:21;;;;;;;11.57;9.77;;;15.80;1.00;;;;;;5067591;28;20855;-53
2023/04/29 09:06:47;;;;;;;10.50;9.17;;;15.70;1.00;;;;;;5069490;28;20442;-55
2023/04/29 09:09:14;;;;;;;10.03;9.00;;;15.70;1.00;;;;;;5065891;28;20448;-54
2023/04/29 09:11:40;;;;;;;10.50;9.30;;;15.80;1.00;;;;;;5065800;28;20870;-53
2023/04/29 09:14:07;;;;;;;11.33;9.50;;;15.70;1.00;;;;;;5083195;28;20437;-54
2023/04/29 09:16:34;;;;;;;11.17;10.07;;;15.70;1.00;;;;;;5064009;28;20464;-55
2023/04/29 09:18:59;;;;;;;9.67;8.67;;;15.70;1.00;;;;;;5068195;28;20835;-55
2023/04/29 09:21:27;;;;;;;10.37;9.27;;;15.70;1.00;;;;;;5066961;28;20473;-55
2023/04/29 09:23:55;;;;;;;9.50;8.50;;;16.30;1.00;;;;;;5062696;28;20544;-53
2023/04/29 09:26:23;;;;;;;11.30;9.70;;;15.40;1.00;;;;;;5067683;28;21004;-54
2023/04/29 09:29:17;;;;;;;10.30;9.20;;;15.40;1.00;;;;;;5062429;28;20580;-56
2023/04/29 09:31:43;;;;;;;11.07;9.97;;;15.40;1.00;;;;;;5060240;28;20470;-54
2023/04/29 09:34:10;;;;;;;13.23;11.93;;;15.60;1.00;;;;;;5067293;28;20458;-54
2023/04/29 09:36:47;;;;;;;13.13;11.83;;;15.60;1.00;;;;;;5070257;28;20472;-56
2023/04/29 09:39:22;;;;;;;12.07;10.87;;;15.50;1.00;;;;;;5063645;28;20720;-55
2023/04/29 09:41:54;;;;;;;12.67;11.27;;;15.60;1.00;;;;;;5067058;28;20780;-54
2023/04/29 09:44:22;;;;;;;13.23;11.97;;;15.60;1.00;;;;;;5067883;28;20456;-55
2023/04/29 09:47:04;;;;;;;11.60;10.43;;;15.70;1.00;;;;;;5061464;28;20785;-53
2023/04/29 09:49:32;;;;;;;12.13;10.83;;;15.70;1.00;;;;;;5062440;28;20549;-56
2023/04/29 09:52:00;;;;;;;13.10;10.43;;;15.80;1.00;;;;;;5067729;28;20482;-54
2023/04/29 09:54:27;;;;;;;12.43;8.93;;;15.80;1.00;;;;;;5062837;28;20442;-54
2023/04/29 09:56:55;;;;;;;10.37;9.27;;;15.90;1.00;;;;;;5065712;28;20819;-54
2023/04/29 09:59:21;;;;;;;9.53;8.63;;;16.00;1.00;;;;;;5067876;28;20446;-56
2023/04/29 10:01:49;;;;;;;8.87;8.00;;;16.20;1.00;;;;;;5055784;28;20979;-54
2023/04/29 10:04:16;;;;;;;8.70;7.80;;;16.40;1.00;;;;;;5058347;28;20788;-54
2023/04/29 10:06:48;;;;;;;8.97;7.80;;;16.60;1.00;;;;;;5063822;28;20438;-55
2023/04/29 10:09:15;;;;;;;9.70;8.10;;;16.80;1.00;;;;;;5065411;28;20734;-54
2023/04/29 10:11:41;;;;;;;10.57;8.33;;;16.70;1.00;;;;;;5068640;28;20446;-53
2023/04/29 10:14:12;;;;;;;10.17;8.37;;;16.60;1.00;;;;;;5055324;28;20446;-55
2023/04/29 10:16:46;;;;;;;9.60;8.40;;;16.80;1.00;;;;;;5047215;28;20523;-55
2023/04/29 10:19:18;;;;;;;9.63;8.47;;;16.90;1.00;;;;;;5066461;28;20433;-54
2023/04/29 10:21:43;;;;;;;9.17;8.27;;;17.10;1.00;;;;;;5069110;28;20434;-55
2023/04/29 10:24:12;;;;;;;9.27;8.37;;;17.20;1.00;;;;;;5050406;28;20478;-55
2023/04/29 10:26:38;;;;;;;9.80;8.80;;;17.10;1.00;;;;;;5041932;28;20237;-55
2023/04/29 10:29:07;;;;;;;10.93;8.50;;;17.00;1.00;;;;;;5045568;28;20462;-55
2023/04/29 10:31:35;;;;;;;10.77;9.50;;;16.90;1.00;;;;;;5050241;28;20314;-54
2023/04/29 10:34:01;;;;;;;11.30;10.10;;;16.80;1.00;;;;;;5053218;28;20474;-56
2023/04/29 10:36:30;;;;;;;11.67;10.47;;;16.50;1.00;;;;;;5057719;28;20543;-55
2023/04/29 10:38:59;;;;;;;12.90;10.83;;;16.10;1.00;;;;;;5054694;28;20188;-56
2023/04/29 10:41:45;;;;;;;12.47;10.43;;;16.10;1.00;;;;;;5066594;28;20449;-55
2023/04/29 10:44:12;;;;;;;11.33;10.20;;;16.10;1.00;;;;;;5057295;28;20525;-56
2023/04/29 10:46:37;;;;;;;12.50;10.93;;;16.30;1.00;;;;;;5063296;28;20477;-54
2023/04/29 10:49:05;;;;;;;14.50;11.87;;;16.40;1.00;;;;;;5053249;28;20424;-54
2023/04/29 10:51:42;;;;;;;15.27;11.80;;;16.70;1.00;;;;;;5064005;28;20549;-57
2023/04/29 10:54:16;;;;;;;12.60;9.80;;;17.00;1.00;;;;;;5072741;28;20424;-55
2023/04/29 10:56:50;;;;;;;10.67;9.60;;;17.00;1.00;;;;;;5066647;28;20828;-53
2023/04/29 10:59:35;;;;;;;14.33;11.90;;;16.80;1.00;;;;;;5066146;28;20528;-56
2023/04/29 11:02:01;;;;;;;12.70;11.40;;;16.60;1.00;;;;;;5055170;28;20446;-52
2023/04/29 11:04:30;;;;;;;11.63;9.47;;;16.70;1.00;;;;;;5056889;28;20472;-54
2023/04/29 11:06:57;;;;;;;12.73;11.40;;;16.70;1.00;;;;;;5067336;28;20305;-55
2023/04/29 11:09:24;;;;;;;14.93;10.90;;;16.90;1.00;;;;;;5059353;28;20534;-54
2023/04/29 11:12:07;;;;;;;17.97;10.50;;;17.00;1.00;;;;;;5058448;28;21013;-53
2023/04/29 11:14:48;;;;;;;11.33;10.03;;;16.80;1.00;;;;;;5065603;28;20788;-55
2023/04/29 11:17:16;;;;;;;11.20;10.00;;;16.60;1.00;;;;;;5080737;28;20822;-54
2023/04/29 11:19:44;;;;;;;10.67;9.57;;;16.40;1.00;;;;;;5066161;28;20469;-56
2023/04/29 11:22:23;;;;;;;12.57;10.10;;;16.20;1.00;;;;;;5073733;28;20536;-54
2023/04/29 11:25:02;;;;;;;12.40;10.90;;;16.00;1.00;;;;;;5067082;28;20430;-57
2023/04/29 11:27:35;;;;;;;12.63;11.33;;;16.00;1.00;;;;;;5063893;28;20888;-53
2023/04/29 11:30:03;;;;;;;10.63;9.53;;;16.10;1.00;;;;;;5062862;28;20926;-53
2023/04/29 11:32:49;;;;;;;10.50;9.53;;;16.20;1.00;;;;;;5060990;28;20470;-55
2023/04/29 11:35:17;;;;;;;9.27;8.37;;;16.60;1.00;;;;;;5065632;28;20450;-55
2023/04/29 11:37:45;;;;;;;8.57;7.73;;;16.70;1.00;;;;;;5069836;28;20512;-54
2023/04/29 11:40:12;;;;;;;11.93;10.33;;;17.00;1.00;;;;;;5068087;28;20449;-54
2023/04/29 11:42:48;;;;;;;9.93;9.03;;;17.10;1.00;;;;;;5080018;28;20449;-55
2023/04/29 11:45:16;;;;;;;9.00;8.20;;;17.30;1.00;;;;;;5075365;28;20434;-52
2023/04/29 11:47:44;;;;;;;9.63;8.73;;;17.10;1.00;;;;;;5072612;28;20430;-52
2023/04/29 11:50:10;;;;;;;8.60;7.80;;;16.90;1.00;;;;;;5071852;28;20871;-53
2023/04/29 11:52:38;;;;;;;9.60;7.70;;;17.00;1.00;;;;;;5072092;28;20478;-52
2023/04/29 11:55:04;;;;;;;8.40;7.60;;;17.00;1.00;;;;;;5072248;28;20441;-54
2023/04/29 11:57:30;;;;;;;7.23;6.63;;;17.10;1.00;;;;;;5072159;28;20438;-54
2023/04/29 12:00:00;;;;;;;6.87;6.27;;;17.10;1.00;;;;;;5077915;28;20401;-53
2023/04/29 12:02:32;;;;;;;7.90;7.20;;;17.00;1.00;;;;;;5072152;28;20545;-55
2023/04/29 12:05:02;;;;;;;6.10;5.60;;;17.00;1.00;;;;;;5072664;28;20455;-55
2023/04/29 12:07:28;;;;;;;6.80;6.20;;;16.80;1.00;;;;;;5069392;28;20899;-54
2023/04/29 12:09:56;;;;;;;7.50;6.80;;;16.80;1.00;;;;;;5072356;28;20430;-55
2023/04/29 12:12:22;;;;;;;7.40;6.70;;;16.90;1.00;;;;;;5071957;28;20184;-55
2023/04/29 12:14:48;;;;;;;7.67;6.97;;;16.90;1.00;;;;;;5070312;28;20446;-55
2023/04/29 12:17:16;;;;;;;7.13;6.53;;;16.90;1.00;;;;;;5072258;28;20461;-55
2023/04/29 12:19:43;;;;;;;7.23;6.63;;;16.80;1.00;;;;;;5072330;28;20565;-54
2023/04/29 12:22:09;;;;;;;8.03;7.33;;;16.50;1.00;;;;;;5071889;28;20937;-54
2023/04/29 12:24:39;;;;;;;7.97;7.27;;;16.20;1.00;;;;;;5071864;28;20448;-53
2023/04/29 12:27:09;;;;;;;8.83;7.93;;;16.30;1.00;;;;;;5072263;28;20829;-55
2023/04/29 12:29:39;;;;;;;9.30;8.40;;;16.10;1.00;;;;;;5070682;28;20462;-54
2023/04/29 12:32:05;;;;;;;10.57;9.67;;;15.70;1.00;;;;;;5070956;28;20451;-55
2023/04/29 12:34:32;;;;;;;10.57;9.53;;;15.70;1.00;;;;;;5071751;28;20449;-55
2023/04/29 12:37:01;;;;;;;10.50;9.50;;;15.70;1.00;;;;;;5070960;28;20470;-54
2023/04/29 12:39:27;;;;;;;11.83;10.63;;;15.70;1.00;;;;;;5071624;28;20430;-53
2023/04/29 12:42:03;;;;;;;11.80;10.60;;;15.50;1.00;;;;;;5071458;28;20404;-54
2023/04/29 12:44:37;;;;;;;10.57;9.60;;;15.40;1.00;;;;;;5071322;28;20835;-56